sensor_id;sensor_type;location;lat;lon;timestamp;temperature;humidity
20712;DHT22;10517;50.742;4.224;2023-04-03T00:01:20;2.30;99.90
20712;DHT22;10517;50.742;4.224;2023-04-03T00:03:46;2.30;99.90
20712;DHT22;10517;50.742;4.224;2023-04-03T00:06:12;2.30;99.90
20712;DHT22;10517;50.742;4.224;2023-04-03T00:08:38;2.40;99.90
20712;DHT22;10517;50.742;4.224;2023-04-03T00:11:04;2.30;99.90
20712;DHT22;10517;50.742;4.224;2023-04-03T00:13:31;2.30;99.90
20712;DHT22;10517;50.742;4.224;2023-04-03T00:15:56;2.30;99.90
20712;DHT22;10517;50.742;4.224;2023-04-03T00:18:22;2.20;99.90
20712;DHT22;10517;50.742;4.224;2023-04-03T00:20:48;2.20;99.90
20712;DHT22;10517;50.742;4.224;2023-04-03T00:23:14;2.20;99.90
20712;DHT22;10517;50.742;4.224;2023-04-03T00:25:40;2.30;99.90
20712;DHT22;10517;50.742;4.224;2023-04-03T00:28:06;2.20;99.90
20712;DHT22;10517;50.742;4.224;2023-04-03T00:30:32;2.20;99.90
20712;DHT22;10517;50.742;4.224;2023-04-03T00:32:57;2.20;99.90
20712;DHT22;10517;50.742;4.224;2023-04-03T00:35:24;2.20;99.90
20712;DHT22;10517;50.742;4.224;2023-04-03T00:37:54;2.30;99.90
20712;DHT22;10517;50.742;4.224;2023-04-03T00:40:23;2.20;99.90
20712;DHT22;10517;50.742;4.224;2023-04-03T00:42:52;2.20;99.90
20712;DHT22;10517;50.742;4.224;2023-04-03T00:47:43;2.20;99.90
20712;DHT22;10517;50.742;4.224;2023-04-03T00:50:09;2.10;99.90
20712;DHT22;10517;50.742;4.224;2023-04-03T00:52:37;2.10;99.90
20712;DHT22;10517;50.742;4.224;2023-04-03T00:55:06;2.10;99.90
20712;DHT22;10517;50.742;4.224;2023-04-03T00:57:33;2.00;99.90
20712;DHT22;10517;50.742;4.224;2023-04-03T01:00:06;2.00;99.90
20712;DHT22;10517;50.742;4.224;2023-04-03T01:02:32;2.00;99.90
20712;DHT22;10517;50.742;4.224;2023-04-03T01:04:58;2.00;99.90
20712;DHT22;10517;50.742;4.224;2023-04-03T01:07:27;2.00;99.90
20712;DHT22;10517;50.742;4.224;2023-04-03T01:09:57;2.00;99.90
20712;DHT22;10517;50.742;4.224;2023-04-03T01:12:35;2.00;99.90
20712;DHT22;10517;50.742;4.224;2023-04-03T01:15:13;1.90;99.90
20712;DHT22;10517;50.742;4.224;2023-04-03T01:17:51;1.90;99.90
20712;DHT22;10517;50.742;4.224;2023-04-03T01:20:31;2.00;99.90
20712;DHT22;10517;50.742;4.224;2023-04-03T01:28:07;2.00;99.90
20712;DHT22;10517;50.742;4.224;2023-04-03T01:30:38;2.00;99.90
20712;DHT22;10517;50.742;4.224;2023-04-03T01:33:05;2.10;99.90
20712;DHT22;10517;50.742;4.224;2023-04-03T01:35:31;2.00;99.90
20712;DHT22;10517;50.742;4.224;2023-04-03T01:37:56;2.00;99.90
20712;DHT22;10517;50.742;4.224;2023-04-03T01:40:22;1.90;99.90
20712;DHT22;10517;50.742;4.224;2023-04-03T01:42:48;1.90;99.90
20712;DHT22;10517;50.742;4.224;2023-04-03T01:45:13;1.90;99.90
20712;DHT22;10517;50.742;4.224;2023-04-03T01:47:39;2.00;99.90
20712;DHT22;10517;50.742;4.224;2023-04-03T01:50:05;2.00;99.90
20712;DHT22;10517;50.742;4.224;2023-04-03T01:52:30;1.90;99.90
20712;DHT22;10517;50.742;4.224;2023-04-03T01:54:56;1.90;99.90
20712;DHT22;10517;50.742;4.224;2023-04-03T01:57:21;1.90;99.90
20712;DHT22;10517;50.742;4.224;2023-04-03T01:59:47;1.90;99.90
20712;DHT22;10517;50.742;4.224;2023-04-03T02:02:13;1.90;99.90
20712;DHT22;10517;50.742;4.224;2023-04-03T02:04:40;1.90;99.90
20712;DHT22;10517;50.742;4.224;2023-04-03T02:07:06;1.90;99.90
20712;DHT22;10517;50.742;4.224;2023-04-03T02:09:31;1.80;99.90
20712;DHT22;10517;50.742;4.224;2023-04-03T02:11:57;1.80;99.90
20712;DHT22;10517;50.742;4.224;2023-04-03T02:14:22;1.80;99.90
20712;DHT22;10517;50.742;4.224;2023-04-03T02:16:49;1.70;99.90
20712;DHT22;10517;50.742;4.224;2023-04-03T02:19:15;1.70;99.90
20712;DHT22;10517;50.742;4.224;2023-04-03T02:21:41;1.70;99.90
20712;DHT22;10517;50.742;4.224;2023-04-03T02:24:07;1.70;99.90
20712;DHT22;10517;50.742;4.224;2023-04-03T02:26:32;1.90;99.90
20712;DHT22;10517;50.742;4.224;2023-04-03T02:28:58;2.00;99.90
20712;DHT22;10517;50.742;4.224;2023-04-03T02:31:23;2.00;99.90
20712;DHT22;10517;50.742;4.224;2023-04-03T02:33:49;2.00;99.90
20712;DHT22;10517;50.742;4.224;2023-04-03T02:36:15;1.90;99.90
20712;DHT22;10517;50.742;4.224;2023-04-03T02:38:41;1.90;99.90
20712;DHT22;10517;50.742;4.224;2023-04-03T02:41:09;1.90;99.90
20712;DHT22;10517;50.742;4.224;2023-04-03T02:43:35;2.00;99.90
20712;DHT22;10517;50.742;4.224;2023-04-03T02:46:00;2.00;99.90
20712;DHT22;10517;50.742;4.224;2023-04-03T02:48:26;2.00;99.90
20712;DHT22;10517;50.742;4.224;2023-04-03T02:50:52;2.10;99.90
20712;DHT22;10517;50.742;4.224;2023-04-03T02:53:18;2.10;99.90
20712;DHT22;10517;50.742;4.224;2023-04-03T02:55:44;2.10;99.90
20712;DHT22;10517;50.742;4.224;2023-04-03T02:58:10;2.20;99.90
20712;DHT22;10517;50.742;4.224;2023-04-03T03:00:36;2.20;99.90
20712;DHT22;10517;50.742;4.224;2023-04-03T03:03:01;2.20;99.90
20712;DHT22;10517;50.742;4.224;2023-04-03T03:05:27;2.20;99.90
20712;DHT22;10517;50.742;4.224;2023-04-03T03:07:53;2.20;99.90
20712;DHT22;10517;50.742;4.224;2023-04-03T03:10:19;2.10;99.90
20712;DHT22;10517;50.742;4.224;2023-04-03T03:12:45;2.10;99.90
20712;DHT22;10517;50.742;4.224;2023-04-03T03:15:11;2.10;99.90
20712;DHT22;10517;50.742;4.224;2023-04-03T03:17:37;2.20;99.90
20712;DHT22;10517;50.742;4.224;2023-04-03T03:20:04;2.10;99.90
20712;DHT22;10517;50.742;4.224;2023-04-03T03:22:29;2.10;99.90
20712;DHT22;10517;50.742;4.224;2023-04-03T03:24:55;2.10;99.90
20712;DHT22;10517;50.742;4.224;2023-04-03T03:27:21;2.10;99.90
20712;DHT22;10517;50.742;4.224;2023-04-03T03:29:46;2.10;99.90
20712;DHT22;10517;50.742;4.224;2023-04-03T03:32:12;2.10;99.90
20712;DHT22;10517;50.742;4.224;2023-04-03T03:34:38;2.10;99.90
20712;DHT22;10517;50.742;4.224;2023-04-03T03:37:04;2.00;99.90
20712;DHT22;10517;50.742;4.224;2023-04-03T03:39:29;1.90;99.90
20712;DHT22;10517;50.742;4.224;2023-04-03T03:41:55;1.80;99.90
20712;DHT22;10517;50.742;4.224;2023-04-03T03:44:21;1.70;99.90
20712;DHT22;10517;50.742;4.224;2023-04-03T03:46:46;1.60;99.90
20712;DHT22;10517;50.742;4.224;2023-04-03T03:49:12;1.60;99.90
20712;DHT22;10517;50.742;4.224;2023-04-03T03:51:39;1.50;99.90
20712;DHT22;10517;50.742;4.224;2023-04-03T03:54:05;1.50;99.90
20712;DHT22;10517;50.742;4.224;2023-04-03T03:56:31;1.40;99.90
20712;DHT22;10517;50.742;4.224;2023-04-03T03:58:56;1.40;99.90
20712;DHT22;10517;50.742;4.224;2023-04-03T04:01:23;1.40;99.90
20712;DHT22;10517;50.742;4.224;2023-04-03T04:03:49;1.50;99.90
20712;DHT22;10517;50.742;4.224;2023-04-03T04:06:15;1.50;99.90
20712;DHT22;10517;50.742;4.224;2023-04-03T04:08:41;1.50;99.90
20712;DHT22;10517;50.742;4.224;2023-04-03T04:11:07;1.40;99.90
20712;DHT22;10517;50.742;4.224;2023-04-03T04:13:32;1.30;99.90
20712;DHT22;10517;50.742;4.224;2023-04-03T04:15:58;1.30;99.90
20712;DHT22;10517;50.742;4.224;2023-04-03T04:18:24;1.30;99.90
20712;DHT22;10517;50.742;4.224;2023-04-03T04:20:49;1.30;99.90
20712;DHT22;10517;50.742;4.224;2023-04-03T04:23:17;1.30;99.90
20712;DHT22;10517;50.742;4.224;2023-04-03T04:25:45;1.30;99.90
20712;DHT22;10517;50.742;4.224;2023-04-03T04:28:11;1.30;99.90
20712;DHT22;10517;50.742;4.224;2023-04-03T04:30:36;1.20;99.90
20712;DHT22;10517;50.742;4.224;2023-04-03T04:33:02;1.20;99.90
20712;DHT22;10517;50.742;4.224;2023-04-03T04:35:27;1.20;99.90
20712;DHT22;10517;50.742;4.224;2023-04-03T04:37:53;1.20;99.90
20712;DHT22;10517;50.742;4.224;2023-04-03T04:40:19;1.10;99.90
20712;DHT22;10517;50.742;4.224;2023-04-03T04:42:44;1.10;99.90
20712;DHT22;10517;50.742;4.224;2023-04-03T04:45:10;1.10;99.90
20712;DHT22;10517;50.742;4.224;2023-04-03T04:47:36;1.10;99.90
20712;DHT22;10517;50.742;4.224;2023-04-03T04:50:01;1.00;99.90
20712;DHT22;10517;50.742;4.224;2023-04-03T04:52:27;1.00;99.90
20712;DHT22;10517;50.742;4.224;2023-04-03T04:54:53;1.10;99.90
20712;DHT22;10517;50.742;4.224;2023-04-03T04:57:18;1.10;99.90
20712;DHT22;10517;50.742;4.224;2023-04-03T04:59:44;1.10;99.90
20712;DHT22;10517;50.742;4.224;2023-04-03T05:02:09;1.10;99.90
20712;DHT22;10517;50.742;4.224;2023-04-03T05:04:35;1.10;99.90
20712;DHT22;10517;50.742;4.224;2023-04-03T05:07:00;1.00;99.90
20712;DHT22;10517;50.742;4.224;2023-04-03T05:09:26;1.10;99.90
20712;DHT22;10517;50.742;4.224;2023-04-03T05:11:52;1.10;99.90
20712;DHT22;10517;50.742;4.224;2023-04-03T05:14:17;1.10;99.90
20712;DHT22;10517;50.742;4.224;2023-04-03T05:16:43;1.10;99.90
20712;DHT22;10517;50.742;4.224;2023-04-03T05:19:09;1.10;99.90
20712;DHT22;10517;50.742;4.224;2023-04-03T05:21:34;1.10;99.90
20712;DHT22;10517;50.742;4.224;2023-04-03T05:24:00;1.00;99.90
20712;DHT22;10517;50.742;4.224;2023-04-03T05:26:28;1.00;99.90
20712;DHT22;10517;50.742;4.224;2023-04-03T05:28:54;1.10;99.90
20712;DHT22;10517;50.742;4.224;2023-04-03T05:31:20;1.00;99.90
20712;DHT22;10517;50.742;4.224;2023-04-03T05:33:45;1.00;99.90
20712;DHT22;10517;50.742;4.224;2023-04-03T05:36:12;1.00;99.90
20712;DHT22;10517;50.742;4.224;2023-04-03T05:38:38;1.00;99.90
20712;DHT22;10517;50.742;4.224;2023-04-03T05:41:04;1.10;99.90
20712;DHT22;10517;50.742;4.224;2023-04-03T05:43:29;1.10;99.90
20712;DHT22;10517;50.742;4.224;2023-04-03T05:45:55;1.00;99.90
20712;DHT22;10517;50.742;4.224;2023-04-03T05:48:21;1.00;99.90
20712;DHT22;10517;50.742;4.224;2023-04-03T05:50:47;1.10;99.90
20712;DHT22;10517;50.742;4.224;2023-04-03T05:53:17;1.10;99.90
20712;DHT22;10517;50.742;4.224;2023-04-03T05:55:44;1.10;99.90
20712;DHT22;10517;50.742;4.224;2023-04-03T05:58:10;1.10;99.90
20712;DHT22;10517;50.742;4.224;2023-04-03T06:00:35;1.10;99.90
20712;DHT22;10517;50.742;4.224;2023-04-03T06:03:01;1.20;99.90
20712;DHT22;10517;50.742;4.224;2023-04-03T06:05:27;1.20;99.90
20712;DHT22;10517;50.742;4.224;2023-04-03T06:07:53;1.30;99.90
20712;DHT22;10517;50.742;4.224;2023-04-03T06:10:18;1.50;99.90
20712;DHT22;10517;50.742;4.224;2023-04-03T06:12:45;1.50;99.90
20712;DHT22;10517;50.742;4.224;2023-04-03T06:15:11;1.50;99.90
20712;DHT22;10517;50.742;4.224;2023-04-03T06:17:37;1.60;99.90
20712;DHT22;10517;50.742;4.224;2023-04-03T06:20:03;1.60;99.90
20712;DHT22;10517;50.742;4.224;2023-04-03T06:22:29;1.70;99.90
20712;DHT22;10517;50.742;4.224;2023-04-03T06:24:56;1.80;99.90
20712;DHT22;10517;50.742;4.224;2023-04-03T06:27:22;1.80;99.90
20712;DHT22;10517;50.742;4.224;2023-04-03T06:29:47;1.90;99.90
20712;DHT22;10517;50.742;4.224;2023-04-03T06:32:14;1.90;99.90
20712;DHT22;10517;50.742;4.224;2023-04-03T06:34:40;2.00;99.90
20712;DHT22;10517;50.742;4.224;2023-04-03T06:37:28;2.20;99.90
20712;DHT22;10517;50.742;4.224;2023-04-03T06:39:54;2.30;99.90
20712;DHT22;10517;50.742;4.224;2023-04-03T06:42:20;2.40;99.90
20712;DHT22;10517;50.742;4.224;2023-04-03T06:44:46;2.50;99.90
20712;DHT22;10517;50.742;4.224;2023-04-03T06:47:16;2.60;99.90
20712;DHT22;10517;50.742;4.224;2023-04-03T06:49:42;2.70;99.90
20712;DHT22;10517;50.742;4.224;2023-04-03T06:52:08;2.80;99.90
20712;DHT22;10517;50.742;4.224;2023-04-03T06:54:35;2.90;99.90
20712;DHT22;10517;50.742;4.224;2023-04-03T06:57:01;2.90;99.90
20712;DHT22;10517;50.742;4.224;2023-04-03T06:59:27;3.00;99.90
20712;DHT22;10517;50.742;4.224;2023-04-03T07:01:52;3.00;99.90
20712;DHT22;10517;50.742;4.224;2023-04-03T07:04:18;3.10;99.90
20712;DHT22;10517;50.742;4.224;2023-04-03T07:06:45;3.20;99.90
20712;DHT22;10517;50.742;4.224;2023-04-03T07:09:12;3.30;99.90
20712;DHT22;10517;50.742;4.224;2023-04-03T07:11:38;3.40;99.90
20712;DHT22;10517;50.742;4.224;2023-04-03T07:14:04;3.50;99.90
20712;DHT22;10517;50.742;4.224;2023-04-03T07:16:31;3.60;99.90
20712;DHT22;10517;50.742;4.224;2023-04-03T07:18:57;3.60;99.90
20712;DHT22;10517;50.742;4.224;2023-04-03T07:21:23;3.80;99.90
20712;DHT22;10517;50.742;4.224;2023-04-03T07:23:49;4.00;99.90
20712;DHT22;10517;50.742;4.224;2023-04-03T07:26:15;4.00;99.90
20712;DHT22;10517;50.742;4.224;2023-04-03T07:28:41;4.00;99.90
20712;DHT22;10517;50.742;4.224;2023-04-03T07:31:10;4.10;99.90
20712;DHT22;10517;50.742;4.224;2023-04-03T07:33:37;4.10;99.90
20712;DHT22;10517;50.742;4.224;2023-04-03T07:36:04;4.30;99.90
20712;DHT22;10517;50.742;4.224;2023-04-03T07:38:32;4.30;99.90
20712;DHT22;10517;50.742;4.224;2023-04-03T07:40:58;4.50;99.90
20712;DHT22;10517;50.742;4.224;2023-04-03T07:43:23;4.60;99.90
20712;DHT22;10517;50.742;4.224;2023-04-03T07:45:50;4.80;99.90
20712;DHT22;10517;50.742;4.224;2023-04-03T07:48:18;4.80;99.90
20712;DHT22;10517;50.742;4.224;2023-04-03T07:50:44;4.90;99.90
20712;DHT22;10517;50.742;4.224;2023-04-03T07:53:10;5.00;99.90
20712;DHT22;10517;50.742;4.224;2023-04-03T07:55:36;5.10;99.90
20712;DHT22;10517;50.742;4.224;2023-04-03T07:58:11;5.20;99.90
20712;DHT22;10517;50.742;4.224;2023-04-03T08:00:38;5.20;99.90
20712;DHT22;10517;50.742;4.224;2023-04-03T08:03:05;5.20;99.90
20712;DHT22;10517;50.742;4.224;2023-04-03T08:05:31;5.20;99.90
20712;DHT22;10517;50.742;4.224;2023-04-03T08:08:01;5.20;99.90
20712;DHT22;10517;50.742;4.224;2023-04-03T08:10:26;5.30;99.90
20712;DHT22;10517;50.742;4.224;2023-04-03T08:12:52;5.40;99.90
20712;DHT22;10517;50.742;4.224;2023-04-03T08:15:17;5.50;99.90
20712;DHT22;10517;50.742;4.224;2023-04-03T08:17:43;5.60;99.90
20712;DHT22;10517;50.742;4.224;2023-04-03T08:20:10;5.70;99.90
20712;DHT22;10517;50.742;4.224;2023-04-03T08:22:35;5.70;99.90
20712;DHT22;10517;50.742;4.224;2023-04-03T08:25:01;5.70;99.90
20712;DHT22;10517;50.742;4.224;2023-04-03T08:27:27;5.80;99.90
20712;DHT22;10517;50.742;4.224;2023-04-03T08:29:54;5.90;99.90
20712;DHT22;10517;50.742;4.224;2023-04-03T08:32:19;5.90;99.90
20712;DHT22;10517;50.742;4.224;2023-04-03T08:34:45;5.90;99.90
20712;DHT22;10517;50.742;4.224;2023-04-03T08:37:11;6.00;99.90
20712;DHT22;10517;50.742;4.224;2023-04-03T08:39:37;6.10;99.90
20712;DHT22;10517;50.742;4.224;2023-04-03T08:45:15;6.40;99.90
20712;DHT22;10517;50.742;4.224;2023-04-03T08:47:52;6.60;99.90
20712;DHT22;10517;50.742;4.224;2023-04-03T08:50:20;6.60;99.90
20712;DHT22;10517;50.742;4.224;2023-04-03T08:52:51;6.70;99.90
20712;DHT22;10517;50.742;4.224;2023-04-03T09:00:25;7.00;99.90
20712;DHT22;10517;50.742;4.224;2023-04-03T09:02:55;6.80;99.90
20712;DHT22;10517;50.742;4.224;2023-04-03T09:05:35;6.70;99.90
20712;DHT22;10517;50.742;4.224;2023-04-03T09:08:12;6.80;99.90
20712;DHT22;10517;50.742;4.224;2023-04-03T09:10:40;6.80;99.90
20712;DHT22;10517;50.742;4.224;2023-04-03T09:13:26;6.80;99.90
20712;DHT22;10517;50.742;4.224;2023-04-03T09:15:56;6.90;99.90
20712;DHT22;10517;50.742;4.224;2023-04-03T09:18:37;7.00;99.90
20712;DHT22;10517;50.742;4.224;2023-04-03T09:21:34;7.20;99.90
20712;DHT22;10517;50.742;4.224;2023-04-03T09:24:05;7.30;99.90
20712;DHT22;10517;50.742;4.224;2023-04-03T09:29:14;7.20;99.90
20712;DHT22;10517;50.742;4.224;2023-04-03T09:31:43;7.20;99.90
20712;DHT22;10517;50.742;4.224;2023-04-03T09:39:28;7.30;99.90
20712;DHT22;10517;50.742;4.224;2023-04-03T09:44:38;7.30;99.90
20712;DHT22;10517;50.742;4.224;2023-04-03T09:47:27;7.30;99.90
20712;DHT22;10517;50.742;4.224;2023-04-03T09:50:24;7.30;99.90
20712;DHT22;10517;50.742;4.224;2023-04-03T09:52:51;7.30;99.90
20712;DHT22;10517;50.742;4.224;2023-04-03T09:55:22;7.30;99.90
20712;DHT22;10517;50.742;4.224;2023-04-03T09:58:40;7.40;99.90
20712;DHT22;10517;50.742;4.224;2023-04-03T10:00:40;7.40;99.90
20712;DHT22;10517;50.742;4.224;2023-04-03T10:03:31;7.60;99.90
20712;DHT22;10517;50.742;4.224;2023-04-03T10:05:57;7.60;99.90
20712;DHT22;10517;50.742;4.224;2023-04-03T10:08:34;7.70;99.90
20712;DHT22;10517;50.742;4.224;2023-04-03T10:11:16;7.70;99.90
20712;DHT22;10517;50.742;4.224;2023-04-03T10:14:02;7.70;99.90
20712;DHT22;10517;50.742;4.224;2023-04-03T10:19:16;7.90;99.90
20712;DHT22;10517;50.742;4.224;2023-04-03T10:21:58;8.00;99.90
20712;DHT22;10517;50.742;4.224;2023-04-03T10:33:20;8.40;99.90
20712;DHT22;10517;50.742;4.224;2023-04-03T10:44:22;8.40;99.90
20712;DHT22;10517;50.742;4.224;2023-04-03T10:47:02;8.80;99.90
20712;DHT22;10517;50.742;4.224;2023-04-03T10:52:37;9.10;99.90
20712;DHT22;10517;50.742;4.224;2023-04-03T10:57:40;9.70;99.90
20712;DHT22;10517;50.742;4.224;2023-04-03T11:00:18;9.80;99.90
20712;DHT22;10517;50.742;4.224;2023-04-03T11:02:56;10.00;99.90
20712;DHT22;10517;50.742;4.224;2023-04-03T11:05:36;9.50;99.90
20712;DHT22;10517;50.742;4.224;2023-04-03T11:08:27;9.30;99.90
20712;DHT22;10517;50.742;4.224;2023-04-03T11:10:55;9.50;99.90
20712;DHT22;10517;50.742;4.224;2023-04-03T11:15:54;9.60;99.90
20712;DHT22;10517;50.742;4.224;2023-04-03T11:18:52;9.50;99.90
20712;DHT22;10517;50.742;4.224;2023-04-03T11:23:53;10.10;99.90
20712;DHT22;10517;50.742;4.224;2023-04-03T11:26:23;10.50;99.90
20712;DHT22;10517;50.742;4.224;2023-04-03T11:29:01;10.60;99.90
20712;DHT22;10517;50.742;4.224;2023-04-03T11:36:47;10.70;99.90
20712;DHT22;10517;50.742;4.224;2023-04-03T11:39:22;10.10;99.90
20712;DHT22;10517;50.742;4.224;2023-04-03T11:41:49;10.00;99.90
20712;DHT22;10517;50.742;4.224;2023-04-03T11:44:35;10.10;99.90
20712;DHT22;10517;50.742;4.224;2023-04-03T11:47:03;9.80;99.90
20712;DHT22;10517;50.742;4.224;2023-04-03T11:50:03;9.70;99.90
20712;DHT22;10517;50.742;4.224;2023-04-03T12:08:51;10.70;99.90
20712;DHT22;10517;50.742;4.224;2023-04-03T12:11:29;10.70;99.90
20712;DHT22;10517;50.742;4.224;2023-04-03T12:16:26;10.60;99.90
20712;DHT22;10517;50.742;4.224;2023-04-03T12:21:23;10.60;99.90
20712;DHT22;10517;50.742;4.224;2023-04-03T12:34:59;10.80;99.90
20712;DHT22;10517;50.742;4.224;2023-04-03T12:48:26;11.20;99.90
20712;DHT22;10517;50.742;4.224;2023-04-03T12:50:54;11.10;99.90
20712;DHT22;10517;50.742;4.224;2023-04-03T12:53:35;10.80;99.90
20712;DHT22;10517;50.742;4.224;2023-04-03T12:58:50;10.60;99.90
20712;DHT22;10517;50.742;4.224;2023-04-03T13:01:22;10.60;99.90
20712;DHT22;10517;50.742;4.224;2023-04-03T13:03:52;11.00;99.90
20712;DHT22;10517;50.742;4.224;2023-04-03T13:06:42;11.00;99.90
20712;DHT22;10517;50.742;4.224;2023-04-03T13:09:23;10.90;99.90
20712;DHT22;10517;50.742;4.224;2023-04-03T13:12:01;10.90;99.90
20712;DHT22;10517;50.742;4.224;2023-04-03T13:14:28;11.40;99.90
20712;DHT22;10517;50.742;4.224;2023-04-03T13:17:04;11.90;99.90
20712;DHT22;10517;50.742;4.224;2023-04-03T13:19:31;12.60;99.90
20712;DHT22;10517;50.742;4.224;2023-04-03T13:22:23;13.20;99.90
20712;DHT22;10517;50.742;4.224;2023-04-03T13:24:51;13.40;99.90
20712;DHT22;10517;50.742;4.224;2023-04-03T13:27:18;13.70;99.90
20712;DHT22;10517;50.742;4.224;2023-04-03T13:29:48;14.50;99.90
20712;DHT22;10517;50.742;4.224;2023-04-03T13:32:20;14.70;99.90
20712;DHT22;10517;50.742;4.224;2023-04-03T13:34:46;14.80;99.90
20712;DHT22;10517;50.742;4.224;2023-04-03T13:37:25;15.00;99.90
20712;DHT22;10517;50.742;4.224;2023-04-03T13:40:17;15.20;99.90
20712;DHT22;10517;50.742;4.224;2023-04-03T13:42:42;15.00;99.90
20712;DHT22;10517;50.742;4.224;2023-04-03T13:45:17;14.70;99.90
20712;DHT22;10517;50.742;4.224;2023-04-03T13:47:44;14.80;99.90
20712;DHT22;10517;50.742;4.224;2023-04-03T13:50:18;15.10;99.90
20712;DHT22;10517;50.742;4.224;2023-04-03T13:52:52;15.50;99.90
20712;DHT22;10517;50.742;4.224;2023-04-03T13:57:52;17.90;99.90
20712;DHT22;10517;50.742;4.224;2023-04-03T14:00:28;16.80;99.90
20712;DHT22;10517;50.742;4.224;2023-04-03T14:02:55;16.80;99.90
20712;DHT22;10517;50.742;4.224;2023-04-03T14:05:22;16.30;99.90
20712;DHT22;10517;50.742;4.224;2023-04-03T14:07:48;15.80;99.90
20712;DHT22;10517;50.742;4.224;2023-04-03T14:10:14;16.00;99.90
20712;DHT22;10517;50.742;4.224;2023-04-03T14:12:40;15.70;99.90
20712;DHT22;10517;50.742;4.224;2023-04-03T14:15:27;15.20;99.90
20712;DHT22;10517;50.742;4.224;2023-04-03T14:17:53;15.30;99.90
20712;DHT22;10517;50.742;4.224;2023-04-03T14:20:23;16.10;99.90
20712;DHT22;10517;50.742;4.224;2023-04-03T14:22:50;16.40;99.90
20712;DHT22;10517;50.742;4.224;2023-04-03T14:25:16;16.20;99.90
20712;DHT22;10517;50.742;4.224;2023-04-03T14:27:47;15.90;99.90
20712;DHT22;10517;50.742;4.224;2023-04-03T14:30:19;15.40;99.90
20712;DHT22;10517;50.742;4.224;2023-04-03T14:32:46;15.60;99.90
20712;DHT22;10517;50.742;4.224;2023-04-03T14:35:12;15.90;99.90
20712;DHT22;10517;50.742;4.224;2023-04-03T14:37:38;16.00;99.90
20712;DHT22;10517;50.742;4.224;2023-04-03T14:40:05;16.10;99.90
20712;DHT22;10517;50.742;4.224;2023-04-03T14:42:34;16.70;99.90
20712;DHT22;10517;50.742;4.224;2023-04-03T14:45:03;17.10;99.90
20712;DHT22;10517;50.742;4.224;2023-04-03T14:47:30;17.40;99.90
20712;DHT22;10517;50.742;4.224;2023-04-03T14:49:56;18.60;99.90
20712;DHT22;10517;50.742;4.224;2023-04-03T14:52:29;19.50;99.40
20712;DHT22;10517;50.742;4.224;2023-04-03T14:54:56;19.80;98.50
20712;DHT22;10517;50.742;4.224;2023-04-03T14:57:24;19.00;97.80
20712;DHT22;10517;50.742;4.224;2023-04-03T14:59:50;17.70;97.60
20712;DHT22;10517;50.742;4.224;2023-04-03T15:02:30;16.50;98.40
20712;DHT22;10517;50.742;4.224;2023-04-03T15:04:57;16.00;98.20
20712;DHT22;10517;50.742;4.224;2023-04-03T15:07:25;16.40;97.70
20712;DHT22;10517;50.742;4.224;2023-04-03T15:09:51;17.40;97.50
20712;DHT22;10517;50.742;4.224;2023-04-03T15:12:17;17.70;96.60
20712;DHT22;10517;50.742;4.224;2023-04-03T15:14:43;17.40;95.70
20712;DHT22;10517;50.742;4.224;2023-04-03T15:17:15;17.00;95.10
20712;DHT22;10517;50.742;4.224;2023-04-03T15:19:41;16.80;95.40
20712;DHT22;10517;50.742;4.224;2023-04-03T15:22:08;17.50;96.30
20712;DHT22;10517;50.742;4.224;2023-04-03T15:24:33;17.80;95.40
20712;DHT22;10517;50.742;4.224;2023-04-03T15:27:00;16.90;94.80
20712;DHT22;10517;50.742;4.224;2023-04-03T15:29:26;18.00;94.30
20712;DHT22;10517;50.742;4.224;2023-04-03T15:31:52;17.20;94.10
20712;DHT22;10517;50.742;4.224;2023-04-03T15:34:18;16.50;94.70
20712;DHT22;10517;50.742;4.224;2023-04-03T15:36:44;17.10;95.80
20712;DHT22;10517;50.742;4.224;2023-04-03T15:39:10;18.20;94.70
20712;DHT22;10517;50.742;4.224;2023-04-03T15:41:35;18.10;94.70
20712;DHT22;10517;50.742;4.224;2023-04-03T15:44:01;18.00;93.70
20712;DHT22;10517;50.742;4.224;2023-04-03T15:46:26;18.30;94.30
20712;DHT22;10517;50.742;4.224;2023-04-03T15:48:52;18.40;94.40
20712;DHT22;10517;50.742;4.224;2023-04-03T15:51:18;18.80;92.60
20712;DHT22;10517;50.742;4.224;2023-04-03T15:53:43;17.80;93.50
20712;DHT22;10517;50.742;4.224;2023-04-03T15:56:09;18.10;93.80
20712;DHT22;10517;50.742;4.224;2023-04-03T15:58:35;19.30;93.20
20712;DHT22;10517;50.742;4.224;2023-04-03T16:01:01;19.60;93.70
20712;DHT22;10517;50.742;4.224;2023-04-03T16:03:27;20.40;92.70
20712;DHT22;10517;50.742;4.224;2023-04-03T16:05:53;21.00;92.30
20712;DHT22;10517;50.742;4.224;2023-04-03T16:08:19;20.60;91.60
20712;DHT22;10517;50.742;4.224;2023-04-03T16:10:45;20.40;92.20
20712;DHT22;10517;50.742;4.224;2023-04-03T16:13:12;19.70;91.50
20712;DHT22;10517;50.742;4.224;2023-04-03T16:15:39;18.50;91.90
20712;DHT22;10517;50.742;4.224;2023-04-03T16:18:05;18.00;92.50
20712;DHT22;10517;50.742;4.224;2023-04-03T16:20:31;18.30;93.40
20712;DHT22;10517;50.742;4.224;2023-04-03T16:22:58;17.50;93.60
20712;DHT22;10517;50.742;4.224;2023-04-03T16:25:25;17.20;94.10
20712;DHT22;10517;50.742;4.224;2023-04-03T16:27:50;16.80;94.20
20712;DHT22;10517;50.742;4.224;2023-04-03T16:30:16;15.30;95.10
20712;DHT22;10517;50.742;4.224;2023-04-03T16:32:42;14.00;95.90
20712;DHT22;10517;50.742;4.224;2023-04-03T16:35:09;13.10;97.30
20712;DHT22;10517;50.742;4.224;2023-04-03T16:37:36;12.60;98.30
20712;DHT22;10517;50.742;4.224;2023-04-03T16:40:03;12.40;99.70
20712;DHT22;10517;50.742;4.224;2023-04-03T16:42:30;12.10;99.30
20712;DHT22;10517;50.742;4.224;2023-04-03T16:44:56;11.90;99.90
20712;DHT22;10517;50.742;4.224;2023-04-03T16:47:22;11.90;99.90
20712;DHT22;10517;50.742;4.224;2023-04-03T16:49:47;11.80;99.90
20712;DHT22;10517;50.742;4.224;2023-04-03T16:52:13;11.50;99.90
20712;DHT22;10517;50.742;4.224;2023-04-03T16:54:39;11.20;99.90
20712;DHT22;10517;50.742;4.224;2023-04-03T16:57:05;11.20;99.90
20712;DHT22;10517;50.742;4.224;2023-04-03T16:59:31;11.10;99.90
20712;DHT22;10517;50.742;4.224;2023-04-03T17:01:56;10.90;99.90
20712;DHT22;10517;50.742;4.224;2023-04-03T17:04:22;10.80;99.90
20712;DHT22;10517;50.742;4.224;2023-04-03T17:06:48;10.70;99.90
20712;DHT22;10517;50.742;4.224;2023-04-03T17:09:13;10.70;99.90
20712;DHT22;10517;50.742;4.224;2023-04-03T17:11:39;10.80;99.90
20712;DHT22;10517;50.742;4.224;2023-04-03T17:14:05;10.80;99.90
20712;DHT22;10517;50.742;4.224;2023-04-03T17:16:33;10.70;99.90
20712;DHT22;10517;50.742;4.224;2023-04-03T17:18:59;10.50;99.90
20712;DHT22;10517;50.742;4.224;2023-04-03T17:21:25;10.40;99.90
20712;DHT22;10517;50.742;4.224;2023-04-03T17:23:55;10.30;99.90
20712;DHT22;10517;50.742;4.224;2023-04-03T17:26:25;10.20;99.90
20712;DHT22;10517;50.742;4.224;2023-04-03T17:28:51;10.10;99.90
20712;DHT22;10517;50.742;4.224;2023-04-03T17:31:17;10.10;99.90
20712;DHT22;10517;50.742;4.224;2023-04-03T17:33:42;10.00;99.90
20712;DHT22;10517;50.742;4.224;2023-04-03T17:36:08;9.90;99.90
20712;DHT22;10517;50.742;4.224;2023-04-03T17:38:34;9.90;99.90